Time;durP1;ratioP1;P1;durP2;ratioP2;P2;SDS_P1;SDS_P2;PMS_P1;PMS_P2;Temp;Humidity;BMP_temperature;BMP_pressure;BME280_temperature;BME280_humidity;BME280_pressure;Samples;Min_cycle;Max_cycle;Signal;HPM_P1;HPM_P2
2022/11/26 00:01:28;;;;;;;;;;;12.20;99.90;;;;;;5095082;28;19911;-74
2022/11/26 00:03:55;;;;;;;;;;;12.20;99.90;;;;;;5095336;28;19908;-74
2022/11/26 00:06:25;;;;;;;;;;;12.20;99.90;;;;;;5095258;28;20326;-80
2022/11/26 00:08:50;;;;;;;;;;;12.20;99.90;;;;;;5094876;28;19912;-73
2022/11/26 00:11:16;;;;;;;;;;;12.20;99.90;;;;;;5087392;28;19935;-73
2022/11/26 00:13:42;;;;;;;;;;;12.10;99.90;;;;;;5099938;28;19985;-75
2022/11/26 00:16:11;;;;;;;;;;;12.10;99.90;;;;;;5092083;28;19919;-73
2022/11/26 00:18:36;;;;;;;;;;;12.00;99.90;;;;;;5087195;28;19912;-73
2022/11/26 00:21:03;;;;;;;;;;;12.00;99.90;;;;;;5083596;28;19951;-73
2022/11/26 00:23:50;;;;;;;;;;;12.10;99.90;;;;;;5079261;28;20042;-73
2022/11/26 00:26:17;;;;;;;;;;;12.00;99.90;;;;;;5086495;28;19965;-74
2022/11/26 00:28:49;;;;;;;;;;;12.10;99.90;;;;;;5097860;28;19934;-73
2022/11/26 00:31:15;;;;;;;;;;;12.10;99.90;;;;;;5092205;28;19922;-73
2022/11/26 00:33:41;;;;;;;;;;;12.10;99.90;;;;;;5090726;28;19920;-74
2022/11/26 00:36:23;;;;;;;;;;;12.10;99.90;;;;;;5084202;28;19920;-73
2022/11/26 00:38:51;;;;;;;;;;;12.00;99.90;;;;;;5097357;27;19912;-74
2022/11/26 00:41:19;;;;;;;;;;;12.10;99.90;;;;;;5096710;28;19921;-73
2022/11/26 00:43:45;;;;;;;;;;;12.10;99.90;;;;;;5097359;28;19926;-73
2022/11/26 00:46:15;;;;;;;;;;;12.10;99.90;;;;;;5072251;28;19935;-73
2022/11/26 00:48:41;;;;;;;;;;;12.10;99.90;;;;;;5106528;27;19921;-73
2022/11/26 00:51:11;;;;;;;;;;;12.00;99.90;;;;;;5080159;28;20002;-73
2022/11/26 00:53:37;;;;;;;;;;;12.00;99.90;;;;;;5079930;28;19916;-73
2022/11/26 00:56:02;;;;;;;;;;;12.00;99.90;;;;;;5102748;28;19912;-74
2022/11/26 00:58:29;;;;;;;;;;;12.00;99.90;;;;;;5105902;28;19918;-73
2022/11/26 01:00:56;;;;;;;;;;;12.00;99.90;;;;;;5106133;28;19937;-73
2022/11/26 01:03:22;;;;;;;;;;;12.00;99.90;;;;;;5100730;28;19911;-73
2022/11/26 01:05:52;;;;;;;;;;;12.00;99.90;;;;;;5103867;28;19919;-73
2022/11/26 01:08:31;;;;;;;;;;;11.90;99.90;;;;;;5083919;28;19914;-73
2022/11/26 01:10:58;;;;;;;;;;;11.80;99.90;;;;;;5103071;28;19912;-73
2022/11/26 01:13:24;;;;;;;;;;;11.80;99.90;;;;;;5094831;28;19916;-73
2022/11/26 01:15:49;;;;;;;;;;;11.80;99.90;;;;;;5108613;27;19973;-73
2022/11/26 01:18:17;;;;;;;;;;;11.80;99.90;;;;;;5090185;28;20610;-73
2022/11/26 01:20:43;;;;;;;;;;;11.70;99.90;;;;;;5098252;28;19912;-73
2022/11/26 01:23:11;;;;;;;;;;;11.70;99.90;;;;;;5096049;28;21095;-74
2022/11/26 01:25:37;;;;;;;;;;;11.70;99.90;;;;;;5107844;28;20420;-73
2022/11/26 01:28:02;;;;;;;;;;;11.70;99.90;;;;;;5083835;28;19912;-73
2022/11/26 01:30:29;;;;;;;;;;;11.70;99.90;;;;;;5107412;28;20002;-73
2022/11/26 01:32:55;;;;;;;;;;;11.70;99.90;;;;;;5102418;28;20345;-73
2022/11/26 01:35:21;;;;;;;;;;;11.70;99.90;;;;;;5094876;28;19931;-73
2022/11/26 01:37:47;;;;;;;;;;;11.60;99.90;;;;;;5094542;28;19912;-74
2022/11/26 01:40:16;;;;;;;;;;;11.70;99.90;;;;;;5116774;27;19919;-73
2022/11/26 01:42:44;;;;;;;;;;;11.70;99.90;;;;;;5079907;28;19908;-73
2022/11/26 01:45:14;;;;;;;;;;;11.80;99.90;;;;;;5096997;28;20011;-73
2022/11/26 01:47:41;;;;;;;;;;;11.90;99.90;;;;;;5107389;28;19908;-74
2022/11/26 01:50:25;;;;;;;;;;;12.00;99.90;;;;;;5093279;28;20467;-74
2022/11/26 01:52:51;;;;;;;;;;;12.00;99.90;;;;;;5093452;28;19912;-73
2022/11/26 01:55:17;;;;;;;;;;;12.00;99.90;;;;;;5074754;28;19908;-72
2022/11/26 01:57:43;;;;;;;;;;;12.00;99.90;;;;;;5074292;28;20546;-72
2022/11/26 02:00:09;;;;;;;;;;;12.00;99.90;;;;;;5093448;28;19943;-72
2022/11/26 02:02:35;;;;;;;;;;;11.90;99.90;;;;;;5093131;28;19909;-76
2022/11/26 02:05:08;;;;;;;;;;;11.90;99.90;;;;;;5093379;28;19919;-72
2022/11/26 02:07:34;;;;;;;;;;;11.80;99.90;;;;;;5092895;28;19909;-72
2022/11/26 02:10:00;;;;;;;;;;;11.70;99.90;;;;;;5093518;28;20306;-73
2022/11/26 02:12:26;;;;;;;;;;;11.60;99.90;;;;;;5093121;28;19915;-72
2022/11/26 02:14:52;;;;;;;;;;;11.60;99.90;;;;;;5102600;28;20357;-73
2022/11/26 02:17:26;;;;;;;;;;;11.60;99.90;;;;;;5091427;28;19944;-73
2022/11/26 02:20:09;;;;;;;;;;;11.50;99.90;;;;;;5101854;28;20271;-74
2022/11/26 02:22:56;;;;;;;;;;;11.50;99.90;;;;;;5103066;28;20393;-73
2022/11/26 02:25:38;;;;;;;;;;;11.50;99.90;;;;;;5089336;28;19912;-72
2022/11/26 02:28:22;;;;;;;;;;;11.50;99.90;;;;;;5092133;28;19974;-73
2022/11/26 02:30:52;;;;;;;;;;;11.50;99.90;;;;;;5105010;28;19908;-73
2022/11/26 02:33:36;;;;;;;;;;;11.60;99.90;;;;;;5077262;28;20459;-73
2022/11/26 02:36:06;;;;;;;;;;;11.80;99.90;;;;;;5097390;28;19912;-72
2022/11/26 02:38:35;;;;;;;;;;;12.00;99.90;;;;;;5091298;28;20393;-72
2022/11/26 02:41:01;;;;;;;;;;;12.20;99.90;;;;;;5094612;28;19916;-72
2022/11/26 02:43:27;;;;;;;;;;;12.20;99.90;;;;;;5093318;28;20006;-71
2022/11/26 02:45:54;;;;;;;;;;;12.20;99.90;;;;;;5095989;28;19992;-72
2022/11/26 02:48:25;;;;;;;;;;;12.10;99.90;;;;;;5090375;28;19908;-73
2022/11/26 02:50:53;;;;;;;;;;;12.10;99.90;;;;;;5093423;28;19955;-74
2022/11/26 02:53:20;;;;;;;;;;;12.00;99.90;;;;;;5085897;28;19935;-72
2022/11/26 02:55:48;;;;;;;;;;;11.90;99.90;;;;;;5124199;27;19908;-72
2022/11/26 02:58:14;;;;;;;;;;;11.80;99.90;;;;;;5104355;28;19912;-72
2022/11/26 03:00:40;;;;;;;;;;;11.70;99.90;;;;;;5112183;28;19923;-73
2022/11/26 03:03:21;;;;;;;;;;;11.70;99.90;;;;;;5088781;28;19957;-72
2022/11/26 03:05:47;;;;;;;;;;;11.60;99.90;;;;;;5099719;28;19923;-73
2022/11/26 03:08:13;;;;;;;;;;;11.60;99.90;;;;;;5102967;28;19912;-72
2022/11/26 03:10:39;;;;;;;;;;;11.40;99.90;;;;;;5104330;28;19957;-73
2022/11/26 03:13:05;;;;;;;;;;;11.40;99.90;;;;;;5096129;28;20383;-73
2022/11/26 03:15:30;;;;;;;;;;;11.40;99.90;;;;;;5107050;28;19930;-73
2022/11/26 03:17:56;;;;;;;;;;;11.30;99.90;;;;;;5099379;28;20396;-73
2022/11/26 03:20:22;;;;;;;;;;;11.30;99.90;;;;;;5103482;28;19913;-72
2022/11/26 03:22:47;;;;;;;;;;;11.20;99.90;;;;;;5096748;28;19927;-72
2022/11/26 03:25:13;;;;;;;;;;;11.20;99.90;;;;;;5098086;28;19973;-73
2022/11/26 03:27:39;;;;;;;;;;;11.20;99.90;;;;;;5096425;27;19912;-72
2022/11/26 03:30:05;;;;;;;;;;;11.20;99.90;;;;;;5119838;27;19908;-73
2022/11/26 03:32:31;;;;;;;;;;;11.20;99.90;;;;;;5089848;28;20404;-72
2022/11/26 03:34:56;;;;;;;;;;;11.20;99.90;;;;;;5104896;28;19941;-76
2022/11/26 03:37:22;;;;;;;;;;;11.20;99.90;;;;;;5104032;28;19975;-74
2022/11/26 03:39:48;;;;;;;;;;;11.30;99.90;;;;;;5098178;28;19916;-75
2022/11/26 03:42:13;;;;;;;;;;;11.30;99.90;;;;;;5083146;28;19916;-72
2022/11/26 03:44:39;;;;;;;;;;;11.20;99.90;;;;;;5081763;28;19981;-73
2022/11/26 03:47:05;;;;;;;;;;;11.30;99.90;;;;;;5095133;28;19915;-73
2022/11/26 03:49:31;;;;;;;;;;;11.30;99.90;;;;;;5095823;28;19912;-74
2022/11/26 03:51:56;;;;;;;;;;;11.20;99.90;;;;;;5095568;28;19953;-73
2022/11/26 03:54:22;;;;;;;;;;;11.20;99.90;;;;;;5077558;28;20010;-73
2022/11/26 03:56:48;;;;;;;;;;;11.10;99.90;;;;;;5066529;28;19912;-72
2022/11/26 03:59:14;;;;;;;;;;;11.10;99.90;;;;;;5095353;28;19924;-73
2022/11/26 04:01:40;;;;;;;;;;;11.10;99.90;;;;;;5095258;28;19908;-73
2022/11/26 04:04:05;;;;;;;;;;;11.00;99.90;;;;;;5077355;28;19908;-73
2022/11/26 04:06:31;;;;;;;;;;;11.00;99.90;;;;;;5076919;28;19935;-73
2022/11/26 04:08:57;;;;;;;;;;;11.10;99.90;;;;;;5094807;28;19908;-72
2022/11/26 04:11:22;;;;;;;;;;;11.00;99.90;;;;;;5080492;28;19918;-73
2022/11/26 04:13:48;;;;;;;;;;;11.00;99.90;;;;;;5083968;28;19959;-72
2022/11/26 04:16:14;;;;;;;;;;;11.00;99.90;;;;;;5100742;28;19951;-72
2022/11/26 04:18:40;;;;;;;;;;;10.90;99.90;;;;;;5091630;28;19912;-73
2022/11/26 04:21:09;;;;;;;;;;;10.90;99.90;;;;;;5103861;28;19966;-73
2022/11/26 04:23:35;;;;;;;;;;;10.80;99.90;;;;;;5104397;28;19963;-72
2022/11/26 04:26:04;;;;;;;;;;;10.90;99.90;;;;;;5081695;28;19960;-73
2022/11/26 04:28:30;;;;;;;;;;;10.90;99.90;;;;;;5105496;28;19919;-72
2022/11/26 04:30:56;;;;;;;;;;;10.80;99.90;;;;;;5112986;27;19908;-73
2022/11/26 04:33:22;;;;;;;;;;;10.80;99.90;;;;;;5077210;28;19916;-72
2022/11/26 04:35:48;;;;;;;;;;;10.80;99.90;;;;;;5092841;28;19961;-72
2022/11/26 04:38:14;;;;;;;;;;;10.90;99.90;;;;;;5091515;28;19912;-73
2022/11/26 04:40:40;;;;;;;;;;;11.00;99.90;;;;;;5102369;28;19940;-72
2022/11/26 04:43:06;;;;;;;;;;;11.00;99.90;;;;;;5095709;28;19940;-72
2022/11/26 04:45:32;;;;;;;;;;;11.10;99.90;;;;;;5079982;28;19912;-74
2022/11/26 04:47:57;;;;;;;;;;;11.20;99.90;;;;;;5078576;28;19920;-73
2022/11/26 04:50:23;;;;;;;;;;;11.10;99.90;;;;;;5085073;28;19966;-72
2022/11/26 04:52:49;;;;;;;;;;;11.10;99.90;;;;;;5085276;28;19999;-72
2022/11/26 04:55:16;;;;;;;;;;;11.00;99.90;;;;;;5089871;28;20281;-73
2022/11/26 04:57:41;;;;;;;;;;;11.00;99.90;;;;;;5094179;27;19920;-72
2022/11/26 05:00:09;;;;;;;;;;;11.20;99.90;;;;;;5096269;28;19918;-72
2022/11/26 05:02:35;;;;;;;;;;;11.20;99.90;;;;;;5087094;28;19927;-72
2022/11/26 05:05:01;;;;;;;;;;;11.30;99.90;;;;;;5081925;28;19916;-71
2022/11/26 05:07:26;;;;;;;;;;;11.30;99.90;;;;;;5083256;28;19955;-72
2022/11/26 05:09:52;;;;;;;;;;;11.40;99.90;;;;;;5086248;28;19913;-73
2022/11/26 05:12:18;;;;;;;;;;;11.30;99.90;;;;;;5092157;28;19920;-72
2022/11/26 05:14:43;;;;;;;;;;;11.30;99.90;;;;;;5088916;28;19924;-76
2022/11/26 05:17:09;;;;;;;;;;;11.40;99.90;;;;;;5089606;28;19920;-72
2022/11/26 05:19:35;;;;;;;;;;;11.30;99.90;;;;;;5086391;28;19965;-71
2022/11/26 05:22:07;;;;;;;;;;;11.40;99.90;;;;;;5093253;28;19916;-71
2022/11/26 05:24:32;;;;;;;;;;;11.40;99.90;;;;;;5092940;27;19921;-73
2022/11/26 05:26:58;;;;;;;;;;;11.50;99.90;;;;;;5085881;28;19958;-72
2022/11/26 05:29:24;;;;;;;;;;;11.40;99.90;;;;;;5081870;28;19958;-72
2022/11/26 05:31:50;;;;;;;;;;;11.50;99.90;;;;;;5094655;28;19920;-72
2022/11/26 05:34:16;;;;;;;;;;;11.50;99.90;;;;;;5094091;28;20007;-72
2022/11/26 05:36:42;;;;;;;;;;;11.40;99.90;;;;;;5093599;28;20006;-71
2022/11/26 05:39:08;;;;;;;;;;;11.40;99.90;;;;;;5092599;28;19908;-71
2022/11/26 05:41:34;;;;;;;;;;;11.40;99.90;;;;;;5093817;28;20384;-72
2022/11/26 05:43:59;;;;;;;;;;;11.40;99.90;;;;;;5075009;28;20016;-72
2022/11/26 05:46:25;;;;;;;;;;;11.40;99.90;;;;;;5094105;28;19919;-72
2022/11/26 05:48:51;;;;;;;;;;;11.40;99.90;;;;;;5095344;28;19973;-72
2022/11/26 05:51:17;;;;;;;;;;;11.40;99.90;;;;;;5075006;28;19999;-74
2022/11/26 05:53:43;;;;;;;;;;;11.30;99.90;;;;;;5075081;28;20007;-72
2022/11/26 05:56:08;;;;;;;;;;;11.30;99.90;;;;;;5072917;28;19912;-72
2022/11/26 05:58:34;;;;;;;;;;;11.30;99.90;;;;;;5108996;28;20312;-72
2022/11/26 06:01:00;;;;;;;;;;;11.30;99.90;;;;;;5075156;28;19955;-72
2022/11/26 06:03:25;;;;;;;;;;;11.30;99.90;;;;;;5093030;28;20369;-72
2022/11/26 06:05:51;;;;;;;;;;;11.30;99.90;;;;;;5092977;28;20316;-72
2022/11/26 06:08:17;;;;;;;;;;;11.30;99.90;;;;;;5075492;28;20408;-72
2022/11/26 06:10:42;;;;;;;;;;;11.20;99.90;;;;;;5098528;28;19911;-72
2022/11/26 06:13:08;;;;;;;;;;;11.20;99.90;;;;;;5101041;28;19911;-72
2022/11/26 06:15:34;;;;;;;;;;;11.10;99.90;;;;;;5094062;28;19935;-72
2022/11/26 06:17:59;;;;;;;;;;;11.20;99.90;;;;;;5083449;28;21753;-72
2022/11/26 06:20:25;;;;;;;;;;;11.10;99.90;;;;;;5082327;28;19935;-72
2022/11/26 06:22:51;;;;;;;;;;;11.10;99.90;;;;;;5095482;28;19958;-76
2022/11/26 06:25:16;;;;;;;;;;;11.20;99.90;;;;;;5095595;28;19912;-72
2022/11/26 06:27:44;;;;;;;;;;;11.20;99.90;;;;;;5079352;28;20325;-74
2022/11/26 06:30:11;;;;;;;;;;;11.20;99.90;;;;;;5090135;28;19920;-72
2022/11/26 06:32:36;;;;;;;;;;;11.20;99.90;;;;;;5099962;28;19915;-72
2022/11/26 06:35:03;;;;;;;;;;;11.20;99.90;;;;;;5102384;28;19916;-74
2022/11/26 06:37:28;;;;;;;;;;;11.30;99.90;;;;;;5097702;28;19916;-72
2022/11/26 06:39:54;;;;;;;;;;;11.30;99.90;;;;;;5093114;28;19939;-73
2022/11/26 06:42:19;;;;;;;;;;;11.40;99.90;;;;;;5099585;28;19908;-72
2022/11/26 06:44:45;;;;;;;;;;;11.50;99.90;;;;;;5076791;28;20426;-73
2022/11/26 06:47:14;;;;;;;;;;;11.50;99.90;;;;;;5081507;28;19923;-72
2022/11/26 06:49:40;;;;;;;;;;;11.40;99.90;;;;;;5081330;28;19912;-72
2022/11/26 06:52:06;;;;;;;;;;;11.30;99.90;;;;;;5098707;28;19952;-73
2022/11/26 06:54:31;;;;;;;;;;;11.30;99.90;;;;;;5083544;28;19916;-72
2022/11/26 06:56:57;;;;;;;;;;;11.40;99.90;;;;;;5099631;28;20308;-72
2022/11/26 06:59:23;;;;;;;;;;;11.50;99.90;;;;;;5106170;28;19949;-72
2022/11/26 07:01:49;;;;;;;;;;;11.60;99.90;;;;;;5101584;28;19908;-72
2022/11/26 07:04:15;;;;;;;;;;;11.70;99.90;;;;;;5088148;28;19919;-71
2022/11/26 07:06:40;;;;;;;;;;;11.80;99.90;;;;;;5115676;28;20308;-71
2022/11/26 07:09:07;;;;;;;;;;;11.80;99.90;;;;;;5097904;28;19959;-72
2022/11/26 07:11:34;;;;;;;;;;;11.90;99.90;;;;;;5117358;27;19994;-72
2022/11/26 07:14:00;;;;;;;;;;;11.90;99.90;;;;;;5097524;28;19915;-72
2022/11/26 07:16:26;;;;;;;;;;;11.90;99.90;;;;;;5089622;28;19923;-72
2022/11/26 07:18:52;;;;;;;;;;;12.00;99.90;;;;;;5108942;27;19922;-72
2022/11/26 07:21:19;;;;;;;;;;;12.10;99.90;;;;;;5098394;28;19986;-72
2022/11/26 07:23:44;;;;;;;;;;;12.10;99.90;;;;;;5097359;28;19912;-72
2022/11/26 07:26:10;;;;;;;;;;;12.10;99.90;;;;;;5073925;28;19923;-72
2022/11/26 07:28:36;;;;;;;;;;;12.10;99.90;;;;;;5107014;27;19966;-72
2022/11/26 07:31:03;;;;;;;;;;;12.20;99.90;;;;;;5098284;28;19912;-71
2022/11/26 07:33:29;;;;;;;;;;;12.20;99.90;;;;;;5110616;27;19920;-70
2022/11/26 07:35:59;;;;;;;;;;;12.20;99.90;;;;;;5104143;28;19912;-71
2022/11/26 07:38:28;;;;;;;;;;;12.20;99.90;;;;;;5102010;28;19928;-70
2022/11/26 07:40:54;;;;;;;;;;;12.30;99.90;;;;;;5083818;28;20430;-70
2022/11/26 07:43:20;;;;;;;;;;;12.30;99.90;;;;;;5107472;28;20007;-71
2022/11/26 07:45:46;;;;;;;;;;;12.40;99.90;;;;;;5095993;28;19947;-70
2022/11/26 07:48:12;;;;;;;;;;;12.40;99.90;;;;;;5077356;28;20395;-71
2022/11/26 07:50:41;;;;;;;;;;;12.40;99.90;;;;;;5077297;28;19966;-71
2022/11/26 07:53:07;;;;;;;;;;;12.50;99.90;;;;;;5094491;28;19943;-71
2022/11/26 07:55:33;;;;;;;;;;;12.60;99.90;;;;;;5076210;28;19916;-71
2022/11/26 07:57:58;;;;;;;;;;;12.70;99.90;;;;;;5094532;28;19909;-71
2022/11/26 08:00:24;;;;;;;;;;;12.60;99.90;;;;;;5074714;28;19908;-71
2022/11/26 08:02:50;;;;;;;;;;;12.60;99.90;;;;;;5085573;28;19912;-70
2022/11/26 08:05:16;;;;;;;;;;;12.80;99.90;;;;;;5099771;28;19913;-70
2022/11/26 08:07:41;;;;;;;;;;;12.90;99.90;;;;;;5094183;28;19919;-70
2022/11/26 08:10:07;;;;;;;;;;;12.90;99.90;;;;;;5079592;28;20449;-70
2022/11/26 08:12:33;;;;;;;;;;;12.90;99.90;;;;;;5086414;28;20002;-70
2022/11/26 08:14:59;;;;;;;;;;;13.10;99.90;;;;;;5087152;28;20237;-71
2022/11/26 08:17:24;;;;;;;;;;;13.10;99.90;;;;;;5075931;28;19916;-69
2022/11/26 08:19:50;;;;;;;;;;;13.10;99.90;;;;;;5097940;28;19912;-70
2022/11/26 08:22:15;;;;;;;;;;;13.20;99.90;;;;;;5109828;27;19999;-70
2022/11/26 08:24:41;;;;;;;;;;;13.30;99.90;;;;;;5080378;28;19912;-70
2022/11/26 08:27:07;;;;;;;;;;;13.30;99.90;;;;;;5093906;28;20248;-70
2022/11/26 08:29:34;;;;;;;;;;;13.30;99.90;;;;;;5095758;28;19916;-71
2022/11/26 08:32:00;;;;;;;;;;;13.50;99.90;;;;;;5096779;28;20230;-71
2022/11/26 08:34:26;;;;;;;;;;;13.60;99.90;;;;;;5096403;28;19916;-71
2022/11/26 08:36:54;;;;;;;;;;;13.60;99.90;;;;;;5109292;27;19963;-73
2022/11/26 08:39:20;;;;;;;;;;;13.60;99.90;;;;;;5098301;28;19939;-70
2022/11/26 08:44:51;;;;;;;;;;;13.80;99.90;;;;;;5077416;28;19922;-71
2022/11/26 08:47:16;;;;;;;;;;;13.90;99.90;;;;;;5107368;28;19999;-71
2022/11/26 08:49:42;;;;;;;;;;;13.80;99.90;;;;;;5101249;28;19912;-71
2022/11/26 08:52:08;;;;;;;;;;;13.80;99.90;;;;;;5092621;28;19908;-70
2022/11/26 08:54:33;;;;;;;;;;;13.90;99.90;;;;;;5097916;28;19927;-70
2022/11/26 08:56:59;;;;;;;;;;;13.90;99.90;;;;;;5103225;28;19915;-70
2022/11/26 08:59:25;;;;;;;;;;;13.80;99.90;;;;;;5096294;28;19908;-70
2022/11/26 09:01:51;;;;;;;;;;;13.90;99.90;;;;;;5086116;28;20292;-71
2022/11/26 09:04:16;;;;;;;;;;;13.90;99.90;;;;;;5079494;28;20046;-71
2022/11/26 09:06:42;;;;;;;;;;;13.90;99.90;;;;;;5087152;28;19922;-71
2022/11/26 09:09:11;;;;;;;;;;;14.00;99.90;;;;;;5079434;28;19918;-71
2022/11/26 09:11:38;;;;;;;;;;;14.10;99.90;;;;;;5089577;28;20369;-71
2022/11/26 09:14:04;;;;;;;;;;;14.00;99.90;;;;;;5086066;28;19981;-71
2022/11/26 09:16:29;;;;;;;;;;;13.90;99.90;;;;;;5118614;27;19911;-71
2022/11/26 09:18:58;;;;;;;;;;;13.90;99.90;;;;;;5080165;28;19912;-71
2022/11/26 09:21:23;;;;;;;;;;;14.00;99.90;;;;;;5094360;28;19908;-71
2022/11/26 09:23:49;;;;;;;;;;;14.10;99.90;;;;;;5106193;28;19969;-71
2022/11/26 09:26:15;;;;;;;;;;;14.10;99.90;;;;;;5070188;28;20335;-70
2022/11/26 09:28:41;;;;;;;;;;;14.10;99.90;;;;;;5110497;27;20365;-71
2022/11/26 09:31:06;;;;;;;;;;;14.10;99.90;;;;;;5093340;28;19908;-71
2022/11/26 09:33:32;;;;;;;;;;;14.10;99.90;;;;;;5082234;28;19974;-71
2022/11/26 09:36:05;;;;;;;;;;;14.10;99.90;;;;;;5080958;28;19923;-71
2022/11/26 09:38:30;;;;;;;;;;;14.10;99.90;;;;;;5090694;28;20357;-73
2022/11/26 09:41:03;;;;;;;;;;;14.10;99.90;;;;;;5089274;28;19928;-71
2022/11/26 09:43:41;;;;;;;;;;;14.00;99.90;;;;;;5117131;27;19974;-71
2022/11/26 09:46:09;;;;;;;;;;;14.10;99.90;;;;;;5093699;28;19950;-71
2022/11/26 09:48:36;;;;;;;;;;;14.00;99.90;;;;;;5088628;28;19912;-70
2022/11/26 09:51:03;;;;;;;;;;;14.00;99.90;;;;;;5093941;28;19995;-73
2022/11/26 09:53:30;;;;;;;;;;;14.00;99.90;;;;;;5094293;28;19912;-71
2022/11/26 09:55:56;;;;;;;;;;;14.10;99.90;;;;;;5075626;28;19919;-71
2022/11/26 09:58:28;;;;;;;;;;;14.10;99.90;;;;;;5094144;28;20190;-71
2022/11/26 10:00:55;;;;;;;;;;;14.10;99.90;;;;;;5075528;28;20377;-72
2022/11/26 10:03:38;;;;;;;;;;;14.10;99.90;;;;;;5098732;28;19912;-71
2022/11/26 10:06:08;;;;;;;;;;;14.00;99.90;;;;;;5093159;28;19908;-72
2022/11/26 10:08:37;;;;;;;;;;;14.00;99.90;;;;;;5075690;28;19908;-72
2022/11/26 10:11:08;;;;;;;;;;;13.90;99.90;;;;;;5109227;28;19908;-71
2022/11/26 10:13:34;;;;;;;;;;;14.00;99.90;;;;;;5075577;28;19912;-71
2022/11/26 10:16:03;;;;;;;;;;;13.90;99.90;;;;;;5119479;28;19908;-72
2022/11/26 10:18:34;;;;;;;;;;;13.90;99.90;;;;;;5086238;28;19916;-71
2022/11/26 10:21:04;;;;;;;;;;;13.90;99.90;;;;;;5103368;28;19961;-73
2022/11/26 10:23:34;;;;;;;;;;;13.90;99.90;;;;;;5092858;28;19912;-71
2022/11/26 10:26:04;;;;;;;;;;;13.90;99.90;;;;;;5080239;28;20007;-71
2022/11/26 10:28:49;;;;;;;;;;;13.80;99.90;;;;;;5095664;28;19911;-71
2022/11/26 10:31:20;;;;;;;;;;;13.90;99.90;;;;;;5093681;28;19912;-70
2022/11/26 10:33:54;;;;;;;;;;;13.90;99.90;;;;;;5080670;28;19923;-69
2022/11/26 10:36:22;;;;;;;;;;;13.90;99.90;;;;;;5073253;28;19955;-70
2022/11/26 10:38:48;;;;;;;;;;;13.90;99.90;;;;;;5070106;28;19915;-70
2022/11/26 10:41:14;;;;;;;;;;;13.80;99.90;;;;;;5079104;28;19944;-70
2022/11/26 10:43:40;;;;;;;;;;;13.80;99.90;;;;;;5081153;28;20285;-69
2022/11/26 10:46:06;;;;;;;;;;;13.80;99.90;;;;;;5097700;28;20006;-70
2022/11/26 10:48:33;;;;;;;;;;;13.90;99.90;;;;;;5088981;28;19933;-70
2022/11/26 10:50:59;;;;;;;;;;;13.80;99.90;;;;;;5081948;28;19919;-69
2022/11/26 10:53:25;;;;;;;;;;;13.80;99.90;;;;;;5081314;28;19908;-70
2022/11/26 10:55:52;;;;;;;;;;;13.90;99.90;;;;;;5080180;28;19938;-71
2022/11/26 10:58:24;;;;;;;;;;;13.80;99.90;;;;;;5098783;28;19908;-70
2022/11/26 11:00:49;;;;;;;;;;;13.90;99.90;;;;;;5109957;28;19958;-71
2022/11/26 11:03:20;;;;;;;;;;;13.90;99.90;;;;;;5104792;28;19908;-70
2022/11/26 11:05:46;;;;;;;;;;;13.90;99.90;;;;;;5098218;28;20365;-70
2022/11/26 11:08:28;;;;;;;;;;;13.90;99.90;;;;;;5096316;28;19939;-70
2022/11/26 11:10:55;;;;;;;;;;;13.90;99.90;;;;;;5072898;28;19912;-71
2022/11/26 11:13:22;;;;;;;;;;;13.80;99.90;;;;;;5094908;28;20401;-71
2022/11/26 11:15:58;;;;;;;;;;;13.80;99.90;;;;;;5099689;28;19912;-71
2022/11/26 11:18:24;;;;;;;;;;;13.90;99.90;;;;;;5074322;28;19916;-71
2022/11/26 11:20:57;;;;;;;;;;;13.80;99.90;;;;;;5084382;28;19919;-71
2022/11/26 11:23:27;;;;;;;;;;;13.90;99.90;;;;;;5101069;28;19908;-71
2022/11/26 11:25:58;;;;;;;;;;;13.80;99.90;;;;;;5099842;28;20309;-71
2022/11/26 11:28:25;;;;;;;;;;;13.80;99.90;;;;;;5104794;28;19912;-71
2022/11/26 11:31:00;;;;;;;;;;;13.80;99.90;;;;;;5090308;28;20005;-71
2022/11/26 11:33:26;;;;;;;;;;;13.90;99.90;;;;;;5097003;28;19962;-71
2022/11/26 11:35:58;;;;;;;;;;;13.90;99.90;;;;;;5098849;28;20090;-71
2022/11/26 11:38:24;;;;;;;;;;;13.90;99.90;;;;;;5103404;28;19939;-71
2022/11/26 11:40:50;;;;;;;;;;;14.00;99.90;;;;;;5103627;28;19912;-71
2022/11/26 11:43:18;;;;;;;;;;;14.00;99.90;;;;;;5079911;28;19908;-71
2022/11/26 11:45:53;;;;;;;;;;;14.10;99.90;;;;;;5100223;28;20068;-71
2022/11/26 11:48:45;;;;;;;;;;;14.10;99.90;;;;;;5091874;28;19923;-72
2022/11/26 11:51:11;;;;;;;;;;;14.20;99.90;;;;;;5084731;28;20459;-72
2022/11/26 11:53:43;;;;;;;;;;;14.20;99.90;;;;;;5103893;28;19916;-71
2022/11/26 11:56:44;;;;;;;;;;;14.30;99.90;;;;;;5101770;28;19912;-72
2022/11/26 11:59:19;;;;;;;;;;;14.30;99.90;;;;;;5024178;28;19921;-71
2022/11/26 12:02:04;;;;;;;;;;;14.40;99.90;;;;;;5112831;28;20261;-72
2022/11/26 12:04:29;;;;;;;;;;;14.40;99.90;;;;;;5124039;28;19919;-72
2022/11/26 12:07:20;;;;;;;;;;;14.50;99.90;;;;;;5126635;27;19916;-72
2022/11/26 12:09:48;;;;;;;;;;;14.60;99.90;;;;;;5105664;28;19912;-73
2022/11/26 12:12:14;;;;;;;;;;;14.70;99.90;;;;;;5096339;28;19911;-72
2022/11/26 12:14:42;;;;;;;;;;;14.70;99.90;;;;;;5111282;28;19923;-71
2022/11/26 12:17:20;;;;;;;;;;;14.80;99.90;;;;;;5110264;28;19919;-72
2022/11/26 12:20:22;;;;;;;;;;;14.90;99.90;;;;;;5108147;28;19920;-72
2022/11/26 12:22:59;;;;;;;;;;;14.80;99.90;;;;;;5049602;28;19912;-71
2022/11/26 12:25:30;;;;;;;;;;;14.90;99.90;;;;;;5089181;28;19912;-72
2022/11/26 12:28:00;;;;;;;;;;;14.90;99.90;;;;;;5090477;28;19947;-72
2022/11/26 12:30:34;;;;;;;;;;;15.00;99.90;;;;;;5105567;28;19934;-72
2022/11/26 12:33:00;;;;;;;;;;;15.00;99.90;;;;;;5109087;28;20010;-72
2022/11/26 12:35:28;;;;;;;;;;;15.00;99.90;;;;;;5098032;28;19945;-72
2022/11/26 12:37:58;;;;;;;;;;;14.90;99.90;;;;;;5098043;28;19912;-72
2022/11/26 12:40:33;;;;;;;;;;;14.90;99.90;;;;;;5106544;28;19919;-71
2022/11/26 12:43:01;;;;;;;;;;;14.90;99.90;;;;;;5107037;28;20385;-73
2022/11/26 12:45:40;;;;;;;;;;;14.70;99.90;;;;;;5087661;28;19913;-73
2022/11/26 12:48:13;;;;;;;;;;;14.60;99.90;;;;;;5107740;28;19919;-72
2022/11/26 12:50:43;;;;;;;;;;;14.70;99.90;;;;;;5106580;28;19976;-71
2022/11/26 12:53:27;;;;;;;;;;;14.70;99.90;;;;;;5091005;28;19973;-72
2022/11/26 12:55:57;;;;;;;;;;;14.70;99.90;;;;;;5105017;28;20011;-71
2022/11/26 12:58:26;;;;;;;;;;;14.70;99.90;;;;;;5099799;28;19940;-72
2022/11/26 13:00:53;;;;;;;;;;;14.70;99.90;;;;;;5104628;28;19919;-71
2022/11/26 13:03:22;;;;;;;;;;;14.70;99.90;;;;;;5075896;28;19920;-72
2022/11/26 13:05:57;;;;;;;;;;;14.80;99.90;;;;;;5095149;28;19999;-73
2022/11/26 13:08:23;;;;;;;;;;;14.70;99.90;;;;;;5073163;28;19909;-72
2022/11/26 13:11:05;;;;;;;;;;;14.70;99.90;;;;;;5103883;28;20411;-72
2022/11/26 13:13:41;;;;;;;;;;;14.70;99.90;;;;;;5104483;28;20193;-72
2022/11/26 13:16:19;;;;;;;;;;;14.70;99.90;;;;;;5097526;28;19983;-73
2022/11/26 13:18:49;;;;;;;;;;;14.70;99.90;;;;;;5098950;28;19962;-72
2022/11/26 13:21:47;;;;;;;;;;;14.70;99.90;;;;;;5084115;28;19979;-73
2022/11/26 13:24:13;;;;;;;;;;;14.70;99.90;;;;;;5065188;28;19951;-72
2022/11/26 13:26:45;;;;;;;;;;;14.70;99.90;;;;;;5109885;28;19923;-73
2022/11/26 13:29:34;;;;;;;;;;;14.60;99.90;;;;;;5084849;28;19935;-73
2022/11/26 13:32:00;;;;;;;;;;;14.50;99.90;;;;;;5079683;28;19912;-72
2022/11/26 13:34:35;;;;;;;;;;;14.50;99.90;;;;;;5082894;28;19916;-73
2022/11/26 13:37:12;;;;;;;;;;;14.50;99.90;;;;;;5097729;28;20050;-73
2022/11/26 13:39:38;;;;;;;;;;;14.50;99.90;;;;;;5099038;28;19999;-73
2022/11/26 13:42:13;;;;;;;;;;;14.40;99.90;;;;;;5086710;28;20043;-72
2022/11/26 13:44:45;;;;;;;;;;;14.50;99.90;;;;;;5095525;28;20002;-73
2022/11/26 13:47:18;;;;;;;;;;;14.60;99.90;;;;;;5077260;28;20297;-72
2022/11/26 13:50:10;;;;;;;;;;;14.60;99.90;;;;;;5071452;28;19912;-73
2022/11/26 13:52:38;;;;;;;;;;;14.60;99.90;;;;;;5070191;28;19920;-73
2022/11/26 13:55:15;;;;;;;;;;;14.60;99.90;;;;;;5086652;28;19924;-73
2022/11/26 13:57:46;;;;;;;;;;;14.60;99.90;;;;;;5098996;28;19966;-73
2022/11/26 14:00:22;;;;;;;;;;;14.50;99.90;;;;;;5077374;28;19985;-73
2022/11/26 14:02:48;;;;;;;;;;;14.50;99.90;;;;;;5083946;28;19962;-72
2022/11/26 14:05:14;;;;;;;;;;;14.40;99.90;;;;;;5099068;28;19908;-73
2022/11/26 14:07:40;;;;;;;;;;;14.50;99.90;;;;;;5114208;28;20296;-72
2022/11/26 14:10:08;;;;;;;;;;;14.40;99.90;;;;;;5086380;28;19916;-72
2022/11/26 14:12:52;;;;;;;;;;;14.30;99.90;;;;;;5107610;28;19916;-73
2022/11/26 14:15:36;;;;;;;;;;;14.30;99.90;;;;;;5101017;28;20445;-74
2022/11/26 14:18:02;;;;;;;;;;;14.30;99.90;;;;;;5104037;28;19916;-73
2022/11/26 14:20:28;;;;;;;;;;;14.20;99.90;;;;;;5106925;28;20039;-73
2022/11/26 14:22:53;;;;;;;;;;;14.10;99.90;;;;;;5101971;28;20425;-73
2022/11/26 14:25:35;;;;;;;;;;;14.10;99.90;;;;;;5102076;28;19912;-74
2022/11/26 14:28:02;;;;;;;;;;;14.10;99.90;;;;;;5111585;28;19926;-73